Indianola, IL (61850)

6:30 PM CDT on September 21, 2014 (GMT -0500)
Edgar County | Change Station
CLOSE
Current Station
Airport
Location: Paris,
Elevation: 653 ft
Nearby Weather Stations

Elev 653 ft 39.70 °N, 87.67 °W | Updated 15 minutes ago

Overcast
Overcast
64 °F
Feels Like 64 °F
N
6
Wind Variable Wind from NNW

Today
High -- | Low -- °F
--% Chance of Precip.
Yesterday
High -- | Low -- °F
Precip. -- in
6:37 AM 6:49 PM
Waning Crescent, 5% visible
Pressure 30.04 in
Visibility 10.0 miles
Clouds Overcast 6000 ft
Dew Point 52 °F
Humidity 64%
Rainfall 0.01 in
Snow Depth Not available.
UV 0 out of 12
Pollen 5.40 out of 12
Air Quality Not available.
Flu Activity Not available.
METAR KPRG 212315Z AUTO 33005KT 10SM OVC060 18/11 A3004 RMK AO2 T01790110

More Conditions Fewer Conditions

Pressure 30.04 in
Visibility 10.0 miles
Clouds Overcast 6000 ft
Dew Point 52 °F
Humidity 64%
Rainfall 0.01 in
Snow Depth Not available.
UV 0 out of 12
Pollen 5.40 out of 12
Air Quality Not available.
Flu Activity Not available.
METAR KPRG 212315Z AUTO 33005KT 10SM OVC060 18/11 A3004 RMK AO2 T01790110

More Conditions Fewer Conditions

10-Day Weather Forecast

Almanac

Astronomy

Sep. 21, 2014 Rise Set
Actual Time 6:37 AM CDT 6:49 PM CDT
Civil Twilight 6:10 AM CDT 7:16 PM CDT
Nautical Twilight 5:38 AM CDT 7:48 PM CDT
Astronomical Twilight 5:06 AM CDT 8:20 PM CDT
Moon 4:11 AM CDT 5:25 PM CDT
Length of Visible Light 13h 06m
Length of Day
12h 12m
Tomorrow will be 2m 36s shorter.
Waning Crescent, 5% of the Moon is Illuminated
Today
Waning Crescent
Sep 24
New
Oct 1
First Quarter
Oct 8
Full
Oct 15
Last Quarter

Today's Extremes

State Highs State Lows

Community

WunderPhotos

Upload Photos

1,755,292 photos uploaded!

WunderBlogs® & News

Nearby

Snow Depth

Station Depth Elevation
No new snow has been reported.

Earthquake Activity

City Distance Mag. Time & Date
No recent earthquake activity has been reported nearby.
Minimum magnitude displayed is 2.5.

Coastal Water Temperatures

Place Temperature
No Stations Reporting

Nearby Weather Stations